• Join FlightAware (Why Join?)
  • Login
  • US Flag 
08:28PM EDT


 

Airport Tracker/Info


-or-


 

Live Flight TrackerFlight Track Log ✈ CES2927 ✈ 20-Aug-2014 ✈ ZSWX / WUX - ZGGG / CAN

Flight Track Log - Related Links

Times and Time Zones

All times are in EDT time to prevent confusion due to time zone crossing. See the CES2927 flight status page for this flight to view local times or setup timezone preferences in your user account.

Time Position Orientation Groundspeed Altitude Reporting Facility
EDT Latitude Longitude Course Direction KTS MPH feet Rate Location/Type
06:20AM 29.8883 118.9003 220° Southwest  Level Estimated
06:21AM 29.8114 118.8288 219° Southwest  Level Estimated
06:22AM 29.7345 118.7573 219° Southwest  Level Estimated
06:23AM 29.6575 118.6860 219° Southwest  Level Estimated
06:24AM 29.5804 118.6147 219° Southwest  Level Estimated
06:25AM 29.5034 118.5436 219° Southwest  Level Estimated
06:26AM 29.4263 118.4726 219° Southwest  Level Estimated
06:27AM 29.3491 118.4017 219° Southwest  Level Estimated
06:28AM 29.2719 118.3309 219° Southwest  Level Estimated
06:29AM 29.1947 118.2602 219° Southwest  Level Estimated
06:30AM 29.1174 118.1896 219° Southwest  Level Estimated
06:31AM 29.0401 118.1191 219° Southwest  Level Estimated
06:32AM 28.9628 118.0487 219° Southwest  Level Estimated
06:33AM 28.8854 117.9784 219° Southwest  Level Estimated
06:34AM 28.8080 117.9083 218° Southwest  Level Estimated
06:35AM 28.7306 117.8382 218° Southwest  Level Estimated
06:36AM 28.6531 117.7682 218° Southwest  Level Estimated
06:37AM 28.5756 117.6984 218° Southwest  Level Estimated
06:38AM 28.4980 117.6286 218° Southwest  Level Estimated
06:39AM 28.4205 117.5590 218° Southwest  Level Estimated
06:40AM 28.3428 117.4894 218° Southwest  Level Estimated
06:41AM 28.2652 117.4200 218° Southwest  Level Estimated
06:42AM 28.1875 117.3506 218° Southwest  Level Estimated
06:43AM 28.1098 117.2814 218° Southwest  Level Estimated
06:44AM 28.0320 117.2122 218° Southwest  Level Estimated
06:45AM 27.9542 117.1432 218° Southwest  Level Estimated
06:46AM 27.8764 117.0742 218° Southwest  Level Estimated
06:47AM 27.7985 117.0054 218° Southwest  Level Estimated
06:48AM 27.7206 116.9366 218° Southwest  Level Estimated
06:49AM 27.6427 116.8680 218° Southwest  Level Estimated
06:50AM 27.5647 116.7994 218° Southwest  Level Estimated
06:51AM 27.4867 116.7310 218° Southwest  Level Estimated
06:52AM 27.4087 116.6626 218° Southwest  Level Estimated
06:53AM 27.3306 116.5944 218° Southwest  Level Estimated
06:54AM 27.2525 116.5262 218° Southwest  Level Estimated
06:55AM 27.1744 116.4581 218° Southwest  Level Estimated
06:56AM 27.0962 116.3901 218° Southwest  Level Estimated
06:57AM 27.0180 116.3223 218° Southwest  Level Estimated
06:58AM 26.9398 116.2545 218° Southwest  Level Estimated
06:59AM 26.8615 116.1868 218° Southwest  Level Estimated
07:00AM 26.7832 116.1192 218° Southwest  Level Estimated
07:01AM 26.7049 116.0517 218° Southwest  Level Estimated
07:02AM 26.6265 115.9843 218° Southwest  Level Estimated
07:03AM 26.5481 115.9169 218° Southwest  Level Estimated
07:04AM 26.4697 115.8497 218° Southwest  Level Estimated
07:05AM 26.3913 115.7826 217° Southwest  Level Estimated
07:06AM 26.3128 115.7155 217° Southwest  Level Estimated
07:07AM 26.2343 115.6486 217° Southwest  Level Estimated
07:08AM 26.1557 115.5817 217° Southwest  Level Estimated
07:09AM 26.0771 115.5149 217° Southwest  Level Estimated
07:10AM 25.9985 115.4482 217° Southwest  Level Estimated
07:11AM 25.9199 115.3817 217° Southwest  Level Estimated
07:12AM 25.8412 115.3151 217° Southwest  Level Estimated
07:13AM 25.7625 115.2487 217° Southwest  Level Estimated
07:14AM 25.6838 115.1824 217° Southwest  Level Estimated
07:15AM 25.6050 115.1161 217° Southwest  Level Estimated
07:16AM 25.5262 115.0500 217° Southwest  Level Estimated
07:17AM 25.4474 114.9839 217° Southwest  Level Estimated
07:18AM 25.3686 114.9179 217° Southwest  Level Estimated
07:19AM 25.2897 114.8520 217° Southwest  Level Estimated
07:20AM 25.2108 114.7862 217° Southwest  Level Estimated
07:21AM 25.1318 114.7205 217° Southwest  Level Estimated
07:22AM 25.0529 114.6549 217° Southwest  Level Estimated
07:23AM 24.9739 114.5893 217° Southwest  Level Estimated
07:24AM 24.8949 114.5238 217° Southwest  Level Estimated
07:25AM 24.8158 114.4584 217° Southwest  Level Estimated
07:26AM 24.7367 114.3931 217° Southwest  Level Estimated
07:27AM 24.6576 114.3279 217° Southwest  Level Estimated
07:28AM 24.5785 114.2628 217° Southwest  Level Estimated
07:29AM 24.4993 114.1977 217° Southwest  Level Estimated
07:30AM 24.4201 114.1328 217° Southwest  Level Estimated
07:31AM 24.3409 114.0678 217° Southwest  Level Estimated
07:32AM 24.2617 114.0030 217° Southwest  Level Estimated
07:33AM 24.1824 113.9383 217° Southwest  Level Estimated
07:34AM 24.1031 113.8737 217° Southwest  Level Estimated
07:35AM 24.0238 113.8091 217° Southwest  Level Estimated
07:36AM 23.9444 113.7446 217° Southwest  Level Estimated
07:37AM 23.8650 113.6802 217° Southwest  Level Estimated
07:38AM 23.7856 113.6159 217° Southwest  Level Estimated
07:39AM 23.7062 113.5516 217° Southwest  Level Estimated
07:40AM 23.6267 113.4874 217° Southwest  Level Estimated
07:41AM 23.5472 113.4233 216° Southwest  Level Estimated
07:42AM 23.4677 113.3593 216° Southwest  Level Estimated
07:43AM 23.3924 113.2988 216° Southwest  Level Estimated
07:44AM 23.3924 113.2988 North  Level Estimated
07:45AM 23.3924 113.2988 North  Level Estimated
07:46AM 23.3924 113.2988 North  Level Estimated
07:47AM 23.3924 113.2988 North  Level Estimated
07:48AM 23.3924 113.2988 North  Level Estimated
07:49AM 23.3924 113.2988 North  Level Estimated
07:50AM 23.3924 113.2988 North  Level Estimated
07:51AM 23.3924 113.2988 North  Level Estimated
07:52AM 23.3924 113.2988 North  Level Estimated
07:53AM 23.3924 113.2988 North  Level Estimated
07:54AM 23.3924 113.2988 North  Level Estimated
07:55AM 23.3924 113.2988 North  Level Estimated
07:56AM 23.3924 113.2988 North  Level Estimated
07:57AM 23.3924 113.2988 North  Level Estimated
07:58AM 23.3924 113.2988 North  Level Estimated
07:59AM 23.3924 113.2988 North  Level Estimated
08:00AM 23.3924 113.2988 North  Level Estimated
08:01AM 23.3924 113.2988 North  Level Estimated